Time;durP1;ratioP1;P1;durP2;ratioP2;P2;SDS_P1;SDS_P2;PMS_P1;PMS_P2;Temp;Humidity;BMP_temperature;BMP_pressure;BME280_temperature;BME280_humidity;BME280_pressure;Samples;Min_cycle;Max_cycle;Signal;HPM_P1;HPM_P2
2021/05/16 00:01:10;;;;;;;0.87;0.70;;;;;;;10.02;90.29;97146.53;5094723;28;20692;-67
2021/05/16 00:03:37;;;;;;;1.43;1.00;;;;;;;10.05;90.18;97146.31;5094766;28;20206;-67
2021/05/16 00:06:03;;;;;;;3.37;1.57;;;;;;;10.07;90.33;97149.66;5094472;28;20230;-67
2021/05/16 00:08:29;;;;;;;1.20;0.70;;;;;;;10.06;89.50;97148.84;5094903;28;20213;-67
2021/05/16 00:10:55;;;;;;;1.47;0.90;;;;;;;9.98;89.99;97150.41;5094933;28;20664;-68
2021/05/16 00:13:21;;;;;;;2.43;1.03;;;;;;;10.01;90.51;97155.41;5094857;28;20210;-69
2021/05/16 00:15:49;;;;;;;2.37;0.83;;;;;;;10.03;90.29;97153.50;5094768;28;20238;-67
2021/05/16 00:18:14;;;;;;;1.17;0.90;;;;;;;10.03;90.31;97154.34;5094770;28;20217;-67
2021/05/16 00:20:41;;;;;;;2.23;0.80;;;;;;;10.09;89.78;97153.03;5094698;28;20691;-67
2021/05/16 00:23:07;;;;;;;1.53;0.90;;;;;;;10.15;89.76;97149.88;5094612;28;20212;-67
2021/05/16 00:25:34;;;;;;;1.07;0.77;;;;;;;10.15;89.81;97155.97;5093116;28;20210;-66
2021/05/16 00:28:01;;;;;;;1.83;0.80;;;;;;;10.19;89.85;97159.22;5094919;28;20236;-67
2021/05/16 00:30:27;;;;;;;2.10;0.90;;;;;;;10.18;89.76;97155.75;5097557;28;20255;-66
2021/05/16 00:32:55;;;;;;;1.37;0.80;;;;;;;10.23;89.32;97160.63;5094544;28;20211;-66
2021/05/16 00:35:23;;;;;;;1.40;0.90;;;;;;;10.23;89.20;97161.50;5094154;28;20230;-66
2021/05/16 00:37:50;;;;;;;1.27;0.70;;;;;;;10.21;89.58;97157.28;5094506;28;20258;-66
2021/05/16 00:40:17;;;;;;;1.90;0.93;;;;;;;10.19;89.82;97154.78;5094383;28;20209;-66
2021/05/16 00:42:43;;;;;;;2.53;0.80;;;;;;;10.32;88.83;97167.78;5094314;28;20604;-67
2021/05/16 00:45:12;;;;;;;1.80;1.00;;;;;;;10.30;89.33;97170.56;5094009;28;20205;-68
2021/05/16 00:47:39;;;;;;;1.13;0.83;;;;;;;10.34;88.85;97157.94;5094134;28;20211;-68
2021/05/16 00:50:08;;;;;;;0.90;0.70;;;;;;;10.38;88.54;97159.34;5092076;28;20832;-68
2021/05/16 00:52:37;;;;;;;1.23;0.90;;;;;;;10.45;88.83;97165.81;5094314;28;20205;-68
2021/05/16 00:55:05;;;;;;;1.50;0.77;;;;;;;10.47;88.51;97158.59;5094183;28;20238;-68
2021/05/16 00:57:31;;;;;;;2.10;0.90;;;;;;;10.51;88.44;97167.94;5094213;28;20204;-67
2021/05/16 00:59:57;;;;;;;1.57;1.00;;;;;;;10.56;88.69;97171.00;5093633;28;20258;-70
2021/05/16 01:02:23;;;;;;;1.60;0.80;;;;;;;10.56;89.42;97160.44;5094181;28;20621;-68
2021/05/16 01:04:50;;;;;;;1.17;0.80;;;;;;;10.55;90.88;97164.91;5093957;28;20251;-68
2021/05/16 01:07:18;;;;;;;1.87;0.80;;;;;;;10.48;92.57;97154.97;5093847;28;20216;-68
2021/05/16 01:09:44;;;;;;;4.33;1.13;;;;;;;10.32;94.66;97154.56;5093551;28;20691;-68
2021/05/16 01:12:11;;;;;;;2.27;0.80;;;;;;;10.20;95.32;97150.31;5093844;28;20583;-68
2021/05/16 01:14:40;;;;;;;1.50;0.97;;;;;;;10.16;96.27;97159.47;5093621;28;20213;-68
2021/05/16 01:17:06;;;;;;;2.00;1.00;;;;;;;10.15;96.08;97160.44;5092237;28;20216;-67
2021/05/16 01:19:33;;;;;;;1.97;1.10;;;;;;;10.09;96.36;97166.22;5093303;28;20217;-68
2021/05/16 01:22:01;;;;;;;1.83;1.00;;;;;;;10.16;96.51;97172.69;5093571;28;20277;-66
2021/05/16 01:24:28;;;;;;;3.43;1.23;;;;;;;10.25;94.67;97166.63;5093506;28;20208;-66
2021/05/16 01:26:55;;;;;;;3.03;1.03;;;;;;;10.31;94.74;97161.69;5093237;28;20672;-66
2021/05/16 01:29:22;;;;;;;2.43;1.03;;;;;;;10.36;93.54;97153.38;5093132;28;20214;-66
2021/05/16 01:31:48;;;;;;;2.87;1.00;;;;;;;10.41;93.55;97153.81;5093470;28;20211;-66
2021/05/16 01:34:15;;;;;;;1.60;0.90;;;;;;;10.49;93.06;97157.50;5093519;28;20207;-66
2021/05/16 01:36:41;;;;;;;2.17;1.00;;;;;;;10.50;92.01;97153.03;5093112;28;20290;-66
2021/05/16 01:39:11;;;;;;;2.70;1.20;;;;;;;10.47;91.86;97159.41;5092440;28;20218;-66
2021/05/16 01:41:38;;;;;;;2.17;1.07;;;;;;;10.55;91.76;97159.63;5093079;28;20263;-66
2021/05/16 01:44:05;;;;;;;2.47;1.10;;;;;;;10.58;91.55;97150.59;5091430;28;20688;-66
2021/05/16 01:46:31;;;;;;;2.80;1.07;;;;;;;10.53;91.67;97142.22;5093338;28;20235;-66
2021/05/16 01:48:57;;;;;;;1.87;1.10;;;;;;;10.61;91.27;97147.69;5092872;28;20683;-67
2021/05/16 01:51:24;;;;;;;4.53;1.00;;;;;;;10.63;90.55;97143.09;5093174;28;20223;-67
2021/05/16 01:53:50;;;;;;;1.40;0.90;;;;;;;10.63;90.26;97149.22;5093169;28;20217;-67
2021/05/16 01:56:24;;;;;;;1.90;1.23;;;;;;;10.54;91.36;97147.38;5092805;28;20711;-68
2021/05/16 01:58:51;;;;;;;2.40;1.07;;;;;;;10.60;90.98;97148.66;5092882;28;20206;-68
2021/05/16 02:01:17;;;;;;;2.50;1.10;;;;;;;10.64;91.13;97145.63;5092901;28;20214;-68
2021/05/16 02:03:44;;;;;;;1.13;1.03;;;;;;;10.60;90.97;97146.03;5093085;28;20206;-67
2021/05/16 02:06:11;;;;;;;2.77;1.00;;;;;;;10.60;90.97;97151.31;5092677;28;20241;-68
2021/05/16 02:08:39;;;;;;;1.80;1.20;;;;;;;10.62;90.08;97146.72;5091275;28;20216;-68
2021/05/16 02:11:05;;;;;;;2.23;1.10;;;;;;;10.60;90.37;97143.38;5092935;28;20221;-68
2021/05/16 02:13:35;;;;;;;2.30;1.10;;;;;;;10.59;90.61;97152.28;5093093;28;20585;-68
2021/05/16 02:16:01;;;;;;;1.37;1.03;;;;;;;10.62;90.68;97146.72;5092954;28;20261;-69
2021/05/16 02:18:27;;;;;;;1.63;1.30;;;;;;;10.63;90.59;97148.38;5092969;28;20738;-67
2021/05/16 02:20:53;;;;;;;2.17;1.20;;;;;;;10.66;90.98;97148.16;5092699;28;20303;-67
2021/05/16 02:23:19;;;;;;;1.57;1.00;;;;;;;10.63;91.41;97146.59;5092730;28;20202;-69
2021/05/16 02:25:45;;;;;;;2.57;1.17;;;;;;;10.59;91.98;97141.72;5093025;28;20308;-67
2021/05/16 02:28:11;;;;;;;1.60;1.10;;;;;;;10.58;92.11;97137.41;5092886;28;20665;-69
2021/05/16 02:30:38;;;;;;;1.87;1.00;;;;;;;10.60;91.88;97138.09;5092592;28;20297;-70
2021/05/16 02:33:05;;;;;;;1.47;0.90;;;;;;;10.62;92.04;97144.06;5092677;28;20211;-69
2021/05/16 02:35:31;;;;;;;1.27;1.07;;;;;;;10.53;93.24;97136.94;5091033;28;20235;-71
2021/05/16 02:37:57;;;;;;;2.77;1.23;;;;;;;10.50;95.60;97137.19;5092918;28;20504;-67
2021/05/16 02:40:23;;;;;;;2.30;1.17;;;;;;;10.45;97.52;97136.75;5092862;28;20267;-67
2021/05/16 02:42:49;;;;;;;2.03;1.20;;;;;;;10.35;98.64;97146.41;5092841;28;20265;-67
2021/05/16 02:45:15;;;;;;;1.90;1.10;;;;;;;10.27;100.00;97144.41;5092899;28;20248;-68
2021/05/16 02:47:42;;;;;;;1.80;1.17;;;;;;;10.15;100.00;97152.53;5092708;28;20216;-68
2021/05/16 02:50:11;;;;;;;1.80;1.10;;;;;;;10.07;100.00;97144.38;5093528;28;20207;-67
2021/05/16 02:52:37;;;;;;;2.03;1.10;;;;;;;10.02;100.00;97149.16;5096286;28;20295;-68
2021/05/16 02:55:04;;;;;;;2.70;1.10;;;;;;;9.98;100.00;97145.13;5096061;28;20340;-68
2021/05/16 02:57:30;;;;;;;3.03;1.47;;;;;;;9.98;100.00;97150.41;5096390;28;20208;-70
2021/05/16 02:59:56;;;;;;;3.17;1.33;;;;;;;9.95;100.00;97146.22;5096359;28;20211;-68
2021/05/16 03:02:22;;;;;;;2.53;1.40;;;;;;;9.94;100.00;97148.97;5094803;28;20238;-69
2021/05/16 03:04:49;;;;;;;2.00;1.47;;;;;;;9.92;100.00;97145.63;5095674;28;20602;-69
2021/05/16 03:07:15;;;;;;;3.03;1.37;;;;;;;9.92;100.00;97143.00;5096085;28;20214;-69
2021/05/16 03:09:41;;;;;;;2.03;1.43;;;;;;;9.89;100.00;97140.56;5096158;28;20233;-69
2021/05/16 03:12:08;;;;;;;2.90;1.17;;;;;;;9.88;100.00;97133.63;5096061;28;20582;-69
2021/05/16 03:14:35;;;;;;;2.83;1.30;;;;;;;9.89;100.00;97135.31;5095642;28;20699;-69
2021/05/16 03:17:01;;;;;;;4.33;1.50;;;;;;;9.86;100.00;97132.94;5095962;28;20311;-68
2021/05/16 03:19:27;;;;;;;2.27;1.40;;;;;;;9.92;100.00;97132.44;5095627;28;20212;-68
2021/05/16 03:21:54;;;;;;;2.10;1.40;;;;;;;9.92;100.00;97129.78;5096079;28;20208;-69
2021/05/16 03:24:20;;;;;;;1.20;1.10;;;;;;;9.91;100.00;97128.13;5095757;28;20214;-67
2021/05/16 03:26:46;;;;;;;2.67;1.53;;;;;;;9.94;100.00;97127.84;5094180;28;20213;-67
2021/05/16 03:29:13;;;;;;;3.03;1.40;;;;;;;9.90;100.00;97129.91;5095391;28;20664;-67
2021/05/16 03:31:39;;;;;;;3.10;1.40;;;;;;;9.88;100.00;97123.06;5095676;28;20222;-68
2021/05/16 03:34:07;;;;;;;3.70;1.57;;;;;;;9.87;100.00;97132.81;5095790;28;20206;-68
2021/05/16 03:36:33;;;;;;;2.23;1.40;;;;;;;9.88;100.00;97134.47;5095636;28;20234;-67
2021/05/16 03:39:00;;;;;;;1.43;1.33;;;;;;;9.91;100.00;97133.41;5095297;28;20213;-67
2021/05/16 03:41:26;;;;;;;3.37;1.27;;;;;;;9.88;100.00;97128.34;5095533;28;20203;-66
2021/05/16 03:43:52;;;;;;;3.13;1.20;;;;;;;9.87;100.00;97127.53;5095417;28;20217;-66
2021/05/16 03:46:18;;;;;;;3.43;1.33;;;;;;;9.85;100.00;97133.91;5095478;28;20221;-66
2021/05/16 03:48:44;;;;;;;2.93;1.33;;;;;;;9.83;100.00;97135.81;5098303;28;20208;-66
2021/05/16 03:51:11;;;;;;;3.37;1.53;;;;;;;9.79;100.00;97135.22;5099750;28;20220;-66
2021/05/16 03:53:38;;;;;;;1.50;1.40;;;;;;;9.80;100.00;97136.06;5097597;28;20217;-66
2021/05/16 03:56:06;;;;;;;1.60;1.30;;;;;;;9.81;100.00;97132.47;5094983;28;20240;-67
2021/05/16 03:58:32;;;;;;;3.40;1.30;;;;;;;9.84;100.00;97138.31;5095382;28;20218;-67
2021/05/16 04:00:58;;;;;;;1.83;1.30;;;;;;;9.89;100.00;97136.16;5094704;28;20213;-66
2021/05/16 04:03:24;;;;;;;2.17;1.40;;;;;;;9.92;100.00;97145.63;5094497;28;20218;-66
2021/05/16 04:05:49;;;;;;;3.43;2.07;;;;;;;9.93;100.00;97137.59;5095102;28;20247;-66
2021/05/16 04:08:15;;;;;;;3.63;1.57;;;;;;;10.00;100.00;97145.81;5094680;28;20208;-66
2021/05/16 04:10:41;;;;;;;2.87;1.73;;;;;;;9.93;100.00;97145.50;5094898;28;20303;-66
2021/05/16 04:13:08;;;;;;;2.27;1.37;;;;;;;9.93;100.00;97145.50;5094590;28;20302;-66
2021/05/16 04:15:34;;;;;;;1.80;1.47;;;;;;;9.92;100.00;97153.53;5094740;28;20240;-66
2021/05/16 04:18:00;;;;;;;3.43;1.53;;;;;;;9.90;100.00;97147.56;5094838;28;20253;-65
2021/05/16 04:20:26;;;;;;;2.60;1.50;;;;;;;9.89;100.00;97145.84;5092820;28;20397;-66
2021/05/16 04:22:52;;;;;;;3.30;1.80;;;;;;;9.89;100.00;97152.00;5094592;28;20222;-66
2021/05/16 04:25:18;;;;;;;3.43;1.47;;;;;;;9.90;100.00;97152.84;5094427;28;20214;-66
2021/05/16 04:27:44;;;;;;;1.87;1.30;;;;;;;9.86;100.00;97149.59;5094684;28;20207;-66
2021/05/16 04:30:13;;;;;;;2.90;1.80;;;;;;;9.85;100.00;97149.72;5094529;28;20250;-66
2021/05/16 04:32:39;;;;;;;1.97;1.50;;;;;;;9.85;100.00;97141.81;5094559;28;20214;-66
2021/05/16 04:35:06;;;;;;;2.40;1.60;;;;;;;9.84;100.00;97142.78;5094343;28;20210;-66
2021/05/16 04:37:32;;;;;;;2.10;1.40;;;;;;;9.87;100.00;97137.25;5094175;28;20214;-65
2021/05/16 04:39:58;;;;;;;4.57;1.70;;;;;;;9.82;100.00;97134.13;5094493;28;20218;-65
2021/05/16 04:42:24;;;;;;;2.20;1.40;;;;;;;9.85;100.00;97137.34;5094413;28;20253;-66
2021/05/16 04:44:50;;;;;;;3.00;1.50;;;;;;;9.91;100.00;97144.78;5092588;28;20211;-66
2021/05/16 04:47:16;;;;;;;2.30;1.67;;;;;;;9.95;100.00;97142.72;5093989;28;20268;-65
2021/05/16 04:49:42;;;;;;;2.73;1.70;;;;;;;10.01;100.00;97136.94;5094221;28;20225;-67
2021/05/16 04:52:09;;;;;;;2.13;1.30;;;;;;;10.03;100.00;97138.53;5093844;28;20685;-67
2021/05/16 04:54:35;;;;;;;3.87;1.83;;;;;;;10.06;100.00;97146.19;5093750;28;20302;-66
2021/05/16 04:57:03;;;;;;;3.93;1.40;;;;;;;10.09;100.00;97138.00;5093614;28;20728;-66
2021/05/16 04:59:29;;;;;;;1.43;1.33;;;;;;;10.07;100.00;97136.47;5093692;28;20301;-65
2021/05/16 05:01:55;;;;;;;5.10;1.90;;;;;;;9.94;100.00;97135.78;5094105;28;20209;-66
2021/05/16 05:04:21;;;;;;;3.20;1.73;;;;;;;9.92;100.00;97143.00;5093999;28;20255;-66
2021/05/16 05:06:47;;;;;;;2.60;1.40;;;;;;;9.94;100.00;97139.25;5094075;28;20238;-66
2021/05/16 05:09:13;;;;;;;1.67;1.20;;;;;;;9.86;100.00;97136.38;5093847;28;20211;-66
2021/05/16 05:11:39;;;;;;;2.23;1.20;;;;;;;9.80;100.00;97142.16;5092020;28;20214;-66
2021/05/16 05:14:05;;;;;;;1.90;1.20;;;;;;;9.82;100.00;97142.06;5093611;28;20245;-65
2021/05/16 05:16:32;;;;;;;4.60;1.70;;;;;;;9.86;100.00;97140.84;5093665;28;20231;-65
2021/05/16 05:18:58;;;;;;;1.83;1.20;;;;;;;9.99;100.00;97141.50;5093648;28;20216;-65
2021/05/16 05:21:25;;;;;;;2.00;1.20;;;;;;;10.11;100.00;97140.53;5093705;28;20217;-65
2021/05/16 05:23:51;;;;;;;1.73;1.10;;;;;;;10.15;100.00;97142.78;5093636;28;20228;-66
2021/05/16 05:26:17;;;;;;;1.60;1.10;;;;;;;10.41;100.00;97153.81;5093334;28;20213;-67
2021/05/16 05:28:43;;;;;;;1.80;1.10;;;;;;;10.73;100.00;97149.28;5093533;28;20260;-66
2021/05/16 05:31:09;;;;;;;1.50;1.00;;;;;;;11.03;100.00;97147.50;5093165;28;20298;-67
2021/05/16 05:33:35;;;;;;;1.27;1.03;;;;;;;11.51;100.00;97153.81;5093125;28;20214;-67
2021/05/16 05:36:01;;;;;;;1.30;0.90;;;;;;;11.98;100.00;97153.06;5092998;28;20288;-67
2021/05/16 05:38:28;;;;;;;1.90;1.00;;;;;;;12.07;99.79;97156.69;5091962;28;20209;-66
2021/05/16 05:40:54;;;;;;;0.80;0.80;;;;;;;12.10;100.00;97162.56;5093188;28;20207;-65
2021/05/16 05:43:20;;;;;;;1.50;0.80;;;;;;;12.10;100.00;97156.44;5093177;28;20306;-65
2021/05/16 05:45:46;;;;;;;1.63;1.10;;;;;;;12.19;100.00;97150.28;5093435;28;20663;-65
2021/05/16 05:48:12;;;;;;;2.07;0.90;;;;;;;12.42;98.52;97154.34;5093312;28;20203;-65
2021/05/16 05:50:38;;;;;;;1.73;1.13;;;;;;;12.81;96.94;97150.63;5093040;28;20199;-65
2021/05/16 05:53:04;;;;;;;2.43;0.80;;;;;;;12.87;95.91;97150.91;5093084;28;20257;-65
2021/05/16 05:55:32;;;;;;;0.97;0.87;;;;;;;12.50;97.22;97157.09;5093256;28;20321;-68
2021/05/16 05:57:58;;;;;;;1.60;1.00;;;;;;;12.05;99.26;97153.38;5092992;28;20664;-67
2021/05/16 06:00:28;;;;;;;1.20;1.00;;;;;;;11.63;100.00;97157.22;5093126;28;20217;-67
2021/05/16 06:02:55;;;;;;;2.53;0.97;;;;;;;11.22;100.00;97146.72;5091213;28;20212;-67
2021/05/16 06:05:21;;;;;;;1.57;1.10;;;;;;;11.09;100.00;97151.41;5093248;28;20332;-65
2021/05/16 06:07:47;;;;;;;1.10;0.97;;;;;;;10.97;100.00;97157.75;5092938;28;20215;-66
2021/05/16 06:10:13;;;;;;;1.80;0.83;;;;;;;10.89;100.00;97157.59;5093150;28;20216;-65
2021/05/16 06:12:40;;;;;;;1.80;0.90;;;;;;;10.89;100.00;97165.53;5093033;28;20717;-66
2021/05/16 06:15:06;;;;;;;2.13;0.80;;;;;;;11.00;100.00;97168.09;5092717;28;20224;-66
2021/05/16 06:17:32;;;;;;;1.83;0.93;;;;;;;11.24;100.00;97165.94;5092975;28;20217;-66
2021/05/16 06:19:58;;;;;;;1.40;0.80;;;;;;;11.40;100.00;97161.00;5092869;28;20726;-66
2021/05/16 06:22:24;;;;;;;1.47;1.00;;;;;;;12.09;100.00;97154.75;5093112;28;20207;-66
2021/05/16 06:24:50;;;;;;;2.80;1.00;;;;;;;13.04;99.88;97141.38;5093351;28;20217;-66
2021/05/16 06:27:16;;;;;;;0.97;0.80;;;;;;;13.05;96.38;97157.16;5096657;28;20212;-66
2021/05/16 06:29:43;;;;;;;1.40;0.83;;;;;;;12.77;98.27;97158.03;5095281;28;20303;-66
2021/05/16 06:32:11;;;;;;;1.97;0.70;;;;;;;12.55;99.14;97158.38;5096570;28;20207;-66
2021/05/16 06:34:37;;;;;;;1.00;0.80;;;;;;;12.83;97.84;97152.16;5096545;28;20218;-66
2021/05/16 06:37:03;;;;;;;2.17;1.03;;;;;;;13.81;91.97;97154.13;5096777;28;20231;-66
2021/05/16 06:39:29;;;;;;;1.80;0.80;;;;;;;14.97;84.92;97159.19;5096648;28;20210;-66
2021/05/16 06:41:55;;;;;;;2.20;0.90;;;;;;;16.04;80.45;97162.03;5096611;28;20218;-66
2021/05/16 06:44:21;;;;;;;1.37;0.60;;;;;;;16.84;73.56;97154.13;5096455;28;20217;-66
2021/05/16 06:46:48;;;;;;;1.00;0.80;;;;;;;17.32;71.38;97162.88;5096620;28;20211;-67
2021/05/16 06:49:14;;;;;;;0.80;0.80;;;;;;;17.36;71.40;97163.38;5096499;28;20204;-66
2021/05/16 06:51:40;;;;;;;1.47;0.80;;;;;;;16.85;70.98;97159.31;5096620;28;20213;-66
2021/05/16 06:54:07;;;;;;;2.37;0.60;;;;;;;16.41;75.55;97157.94;5096169;28;20212;-66
2021/05/16 06:56:33;;;;;;;0.93;0.73;;;;;;;16.03;77.80;97165.72;5094474;28;20274;-65
2021/05/16 06:58:59;;;;;;;1.70;0.70;;;;;;;15.60;79.11;97162.38;5096254;28;20627;-66
2021/05/16 07:01:25;;;;;;;1.73;0.80;;;;;;;15.29;79.03;97158.53;5092919;28;20213;-66
2021/05/16 07:03:52;;;;;;;2.07;0.70;;;;;;;15.03;80.05;97158.56;5095384;28;20668;-65
2021/05/16 07:06:20;;;;;;;1.70;0.70;;;;;;;14.67;80.58;97161.47;5095383;28;20251;-66
2021/05/16 07:08:47;;;;;;;2.10;0.77;;;;;;;14.46;82.40;97164.44;5094145;28;20213;-66
2021/05/16 07:11:13;;;;;;;1.23;0.80;;;;;;;14.33;83.63;97164.00;5093658;28;20215;-66
2021/05/16 07:13:40;;;;;;;2.07;0.90;;;;;;;14.18;83.94;97156.69;5093463;28;20221;-66
2021/05/16 07:16:06;;;;;;;1.10;0.67;;;;;;;14.08;84.88;97159.41;5093816;28;20227;-66
2021/05/16 07:18:32;;;;;;;2.00;0.80;;;;;;;14.08;83.77;97158.56;5094646;28;20204;-66
2021/05/16 07:20:59;;;;;;;1.33;0.60;;;;;;;14.03;83.30;97152.88;5094425;28;20210;-67
2021/05/16 07:23:25;;;;;;;2.43;1.00;;;;;;;14.06;83.59;97160.53;5092575;28;20284;-66
2021/05/16 07:25:51;;;;;;;1.67;0.90;;;;;;;14.21;84.23;97156.41;5093256;28;20213;-67
2021/05/16 07:28:17;;;;;;;1.87;0.80;;;;;;;14.34;83.91;97154.19;5095046;28;20212;-66
2021/05/16 07:30:43;;;;;;;1.63;0.90;;;;;;;14.61;83.29;97157.59;5094252;28;20620;-66
2021/05/16 07:33:10;;;;;;;1.90;0.83;;;;;;;14.85;82.59;97159.59;5093297;28;20211;-67
2021/05/16 07:35:36;;;;;;;0.93;0.73;;;;;;;15.06;82.14;97163.56;5094916;28;20250;-67
2021/05/16 07:38:03;;;;;;;1.30;0.90;;;;;;;15.23;81.46;97156.50;5095186;28;20207;-67
2021/05/16 07:40:30;;;;;;;0.80;0.80;;;;;;;15.23;79.59;97162.69;5095127;28;20592;-67
2021/05/16 07:42:56;;;;;;;2.53;0.70;;;;;;;15.24;78.62;97158.19;5094772;28;20213;-67
2021/05/16 07:45:23;;;;;;;1.70;0.67;;;;;;;15.27;76.33;97152.56;5094898;28;20298;-67
2021/05/16 07:47:49;;;;;;;2.10;0.70;;;;;;;15.40;76.08;97151.13;5094827;28;20267;-67
2021/05/16 07:50:15;;;;;;;1.23;0.60;;;;;;;15.50;75.00;97151.00;5089818;28;20678;-67
2021/05/16 07:52:42;;;;;;;1.53;0.80;;;;;;;15.70;74.59;97157.78;5093812;28;20220;-67
2021/05/16 07:55:10;;;;;;;1.27;0.60;;;;;;;15.71;74.25;97154.94;5093717;28;20217;-68
2021/05/16 07:57:37;;;;;;;2.33;0.50;;;;;;;15.71;75.59;97154.09;5093119;28;20653;-68
2021/05/16 08:00:06;;;;;;;1.07;0.73;;;;;;;15.79;76.20;97156.78;5091661;28;20205;-68
2021/05/16 08:02:32;;;;;;;0.93;0.60;;;;;;;15.88;74.97;97155.84;5093153;28;20570;-67
2021/05/16 08:04:58;;;;;;;0.93;0.70;;;;;;;15.89;74.20;97158.31;5092392;28;20240;-67
2021/05/16 08:07:24;;;;;;;0.60;0.57;;;;;;;16.13;74.14;97153.91;5093838;28;20226;-67
2021/05/16 08:09:50;;;;;;;1.87;0.70;;;;;;;16.45;73.21;97151.28;5092743;28;20225;-67
2021/05/16 08:12:18;;;;;;;1.13;0.57;;;;;;;16.46;70.44;97150.28;5092535;28;20616;-67
2021/05/16 08:14:44;;;;;;;1.10;0.70;;;;;;;16.27;68.93;97152.44;5093837;28;20637;-67
2021/05/16 08:17:11;;;;;;;1.30;0.97;;;;;;;16.34;68.68;97146.25;5091517;28;20263;-67
2021/05/16 08:19:37;;;;;;;1.20;0.60;;;;;;;16.41;66.20;97144.63;5094007;28;20207;-67
2021/05/16 08:22:03;;;;;;;2.57;0.80;;;;;;;16.53;64.72;97143.28;5094245;28;20209;-67
2021/05/16 08:24:29;;;;;;;3.00;0.93;;;;;;;16.71;63.57;97143.13;5093737;28;20748;-67
2021/05/16 08:26:55;;;;;;;2.00;1.00;;;;;;;16.86;64.80;97139.63;5094192;28;20214;-67
2021/05/16 08:29:22;;;;;;;1.67;0.70;;;;;;;17.11;65.69;97138.56;5093786;28;20275;-67
2021/05/16 08:31:48;;;;;;;1.87;0.80;;;;;;;17.21;64.53;97146.41;5093926;28;20213;-67
2021/05/16 08:34:14;;;;;;;2.37;0.70;;;;;;;17.28;67.91;97142.88;5093604;28;20301;-67
2021/05/16 08:36:40;;;;;;;1.73;0.80;;;;;;;17.57;63.51;97139.63;5093774;28;20238;-67
2021/05/16 08:39:07;;;;;;;2.20;0.60;;;;;;;17.81;61.48;97134.19;5093825;28;20260;-67
2021/05/16 08:41:34;;;;;;;1.27;0.70;;;;;;;17.73;63.62;97132.38;5093921;28;20301;-67
2021/05/16 08:44:01;;;;;;;1.10;0.70;;;;;;;17.58;62.66;97130.63;5091883;28;20214;-67
2021/05/16 08:46:28;;;;;;;0.77;0.60;;;;;;;17.20;63.68;97126.84;5093502;28;20684;-68
2021/05/16 08:48:54;;;;;;;1.07;0.73;;;;;;;16.82;65.00;97122.28;5093362;28;20619;-67
2021/05/16 08:51:20;;;;;;;1.47;0.70;;;;;;;16.60;67.38;97128.31;5093958;28;20289;-67
2021/05/16 08:53:46;;;;;;;2.27;0.90;;;;;;;16.56;69.24;97129.63;5093252;28;20317;-67
2021/05/16 08:56:12;;;;;;;1.73;0.60;;;;;;;16.63;68.21;97125.28;5093628;28;20284;-67
2021/05/16 08:58:39;;;;;;;3.07;0.70;;;;;;;16.98;67.57;97135.59;5093552;28;20227;-67
2021/05/16 09:01:18;;;;;;;3.50;0.90;;;;;;;17.39;63.95;97125.69;5093479;28;20257;-67
2021/05/16 09:03:45;;;;;;;2.80;0.90;;;;;;;17.84;63.78;97125.81;5093217;28;20676;-67
2021/05/16 09:06:11;;;;;;;1.50;0.70;;;;;;;17.87;58.23;97120.94;5092981;28;20234;-67
2021/05/16 09:08:37;;;;;;;1.57;0.87;;;;;;;17.71;58.25;97118.38;5093346;28;20210;-67
2021/05/16 09:11:03;;;;;;;2.10;0.90;;;;;;;17.15;59.14;97123.91;5091561;28;20207;-67
2021/05/16 09:13:30;;;;;;;1.90;0.83;;;;;;;16.97;57.38;97119.75;5087248;28;20214;-67
2021/05/16 09:16:10;;;;;;;1.70;0.67;;;;;;;16.60;59.18;97120.31;5092545;28;20238;-65
2021/05/16 09:18:38;;;;;;;2.10;0.80;;;;;;;16.73;59.89;97112.63;5092841;28;20211;-67
2021/05/16 09:21:27;;;;;;;2.20;1.10;;;;;;;16.96;54.45;97113.56;5091412;28;20260;-67
2021/05/16 09:24:16;;;;;;;1.97;0.87;;;;;;;17.45;57.16;97115.16;5087246;28;20219;-66
2021/05/16 09:26:55;;;;;;;3.13;1.03;;;;;;;17.47;55.32;97107.78;5092400;28;20215;-66
2021/05/16 09:29:24;;;;;;;3.17;1.10;;;;;;;17.36;52.99;97108.13;5092179;28;20212;-67
2021/05/16 09:31:51;;;;;;;2.80;1.10;;;;;;;17.09;54.07;97105.88;5092817;28;20218;-67
2021/05/16 09:34:18;;;;;;;1.70;0.90;;;;;;;16.94;54.47;97110.25;5092802;28;20668;-66
2021/05/16 09:36:46;;;;;;;5.77;1.00;;;;;;;17.13;57.15;97109.84;5092904;28;20242;-66
2021/05/16 09:39:14;;;;;;;3.20;1.00;;;;;;;17.34;54.59;97107.47;5091046;28;20214;-65
2021/05/16 09:41:55;;;;;;;3.03;1.10;;;;;;;17.30;53.04;97114.16;5092811;28;20252;-66
2021/05/16 09:44:32;;;;;;;3.30;0.80;;;;;;;17.32;52.32;97106.78;5092790;28;20210;-66
2021/05/16 09:47:12;;;;;;;2.03;0.90;;;;;;;17.34;52.63;97103.97;5083948;28;20214;-65
2021/05/16 09:49:39;;;;;;;2.43;0.80;;;;;;;17.40;55.06;97104.16;5090955;28;20198;-65
2021/05/16 09:52:10;;;;;;;3.00;0.73;;;;;;;17.23;52.19;97102.50;5091474;28;20617;-66
2021/05/16 09:54:55;;;;;;;3.67;1.20;;;;;;;17.03;51.13;97093.22;5091471;28;20274;-66
2021/05/16 09:57:21;;;;;;;3.87;1.00;;;;;;;16.78;54.23;97096.94;5071181;28;20619;-66
2021/05/16 09:59:47;;;;;;;2.90;1.10;;;;;;;16.82;54.86;97095.59;5071430;28;20256;-66
2021/05/16 10:02:14;;;;;;;3.37;1.00;;;;;;;17.02;54.12;97096.88;5075065;28;20207;-66
2021/05/16 10:04:41;;;;;;;3.67;1.20;;;;;;;17.29;55.09;97091.13;5073705;28;20692;-65
2021/05/16 10:07:07;;;;;;;2.90;1.73;;;;;;;17.66;53.73;97095.81;5075783;28;20581;-66
2021/05/16 10:09:34;;;;;;;1.90;1.10;;;;;;;17.90;52.27;97083.19;5075733;28;20625;-65
2021/05/16 10:12:02;;;;;;;3.27;1.13;;;;;;;18.10;52.86;97079.03;5076436;28;20214;-66
2021/05/16 10:14:30;;;;;;;2.37;0.97;;;;;;;18.25;50.79;97076.41;5076088;28;20217;-65
2021/05/16 10:16:59;;;;;;;2.50;0.90;;;;;;;18.36;51.07;97071.50;5076137;28;20267;-65
2021/05/16 10:19:30;;;;;;;2.97;1.03;;;;;;;18.42;49.45;97078.81;5076416;28;20211;-66
2021/05/16 10:22:15;;;;;;;3.53;1.03;;;;;;;18.34;50.05;97065.50;5076360;28;20237;-65
2021/05/16 10:24:43;;;;;;;2.37;0.90;;;;;;;18.21;49.34;97065.25;5075888;28;20735;-65
2021/05/16 10:27:23;;;;;;;3.00;1.00;;;;;;;18.19;51.06;97055.72;5075880;28;20653;-65
2021/05/16 10:29:52;;;;;;;1.40;0.80;;;;;;;18.30;49.01;97050.78;5075792;28;20215;-65
2021/05/16 10:32:23;;;;;;;1.93;1.10;;;;;;;18.58;49.78;97051.91;5074395;28;20203;-65
2021/05/16 10:35:00;;;;;;;1.50;0.90;;;;;;;18.91;48.47;97047.88;5076066;28;20221;-65
2021/05/16 10:37:40;;;;;;;2.93;1.30;;;;;;;19.19;48.25;97042.75;5075947;28;20234;-65
2021/05/16 10:43:01;;;;;;;2.13;0.80;;;;;;;18.87;47.66;97041.25;5110623;27;20530;-66
2021/05/16 10:45:34;;;;;;;4.50;1.20;;;;;;;18.85;47.69;97037.09;5110139;28;20267;-67
2021/05/16 10:48:16;;;;;;;3.87;1.03;;;;;;;19.03;46.54;97029.53;5110336;28;20296;-66
2021/05/16 10:50:49;;;;;;;3.03;0.80;;;;;;;19.42;46.80;97030.94;5109135;28;20210;-66
2021/05/16 10:53:22;;;;;;;1.20;0.90;;;;;;;19.87;43.74;97030.63;5108035;28;20217;-65
2021/05/16 10:55:50;;;;;;;2.10;0.80;;;;;;;19.55;43.55;97030.25;5109410;28;20694;-66
2021/05/16 10:58:43;;;;;;;4.07;1.00;;;;;;;19.61;45.97;97019.63;5107856;28;20271;-66
2021/05/16 11:01:11;;;;;;;1.83;0.83;;;;;;;19.67;47.53;97018.84;5107046;28;20247;-66
2021/05/16 11:03:52;;;;;;;2.17;0.90;;;;;;;19.86;43.18;97012.88;5107779;28;20347;-66
2021/05/16 11:06:20;;;;;;;1.93;0.90;;;;;;;19.93;43.97;97008.41;5108983;28;20915;-66
2021/05/16 11:09:09;;;;;;;3.53;1.00;;;;;;;19.90;44.22;96998.09;5108396;28;20214;-66
2021/05/16 11:11:38;;;;;;;4.90;0.93;;;;;;;20.03;43.22;96998.22;5109007;28;20215;-66
2021/05/16 11:14:14;;;;;;;2.43;0.80;;;;;;;20.12;42.74;96997.06;5108436;28;20288;-66
2021/05/16 11:16:46;;;;;;;1.73;0.87;;;;;;;20.24;42.36;96982.13;5109284;28;20260;-66
2021/05/16 11:19:12;;;;;;;1.87;0.90;;;;;;;20.24;39.92;96974.06;5110004;28;20210;-66
2021/05/16 11:21:38;;;;;;;3.53;0.97;;;;;;;20.27;44.12;96968.31;5109806;28;20723;-66
2021/05/16 11:24:05;;;;;;;2.67;0.90;;;;;;;20.17;41.79;96977.75;5109416;28;20671;-66
2021/05/16 11:26:31;;;;;;;2.80;0.97;;;;;;;20.15;41.09;96966.34;5108054;28;20218;-66
2021/05/16 11:28:59;;;;;;;1.53;0.90;;;;;;;20.03;41.86;96965.19;5109884;28;20214;-66
2021/05/16 11:31:27;;;;;;;2.00;0.90;;;;;;;19.74;41.94;96966.13;5109368;28;20208;-66
2021/05/16 11:33:55;;;;;;;1.73;1.00;;;;;;;19.59;44.48;96959.16;5109352;28;20255;-67
2021/05/16 11:36:22;;;;;;;2.03;0.90;;;;;;;19.51;46.23;96957.44;5109581;28;20276;-65